createdAt,value
2018-09-03T00:01:49.228Z,12.63
2018-09-03T00:04:18.474Z,12.82
2018-09-03T00:06:47.319Z,13.10
2018-09-03T00:09:15.932Z,12.73
2018-09-03T00:11:44.795Z,12.63
2018-09-03T00:14:13.620Z,13.62
2018-09-03T00:16:42.328Z,12.85
2018-09-03T00:19:11.255Z,12.53
2018-09-03T00:21:40.061Z,13.60
2018-09-03T00:24:08.665Z,12.23
2018-09-03T00:26:37.364Z,12.47
2018-09-03T00:29:06.192Z,12.47
2018-09-03T00:31:40.311Z,13.00
2018-09-03T00:34:14.864Z,11.88
2018-09-03T00:36:49.468Z,12.13
2018-09-03T00:39:23.169Z,12.53
2018-09-03T00:41:57.796Z,11.43
2018-09-03T00:44:31.677Z,11.93
2018-09-03T00:47:02.066Z,12.88
2018-09-03T00:49:31.191Z,10.90
2018-09-03T00:52:00.221Z,11.60
2018-09-03T00:54:29.216Z,11.05
2018-09-03T00:56:58.080Z,12.03
2018-09-03T00:59:26.721Z,12.15
2018-09-03T01:01:55.397Z,11.40
2018-09-03T01:04:24.080Z,11.55
2018-09-03T01:06:52.951Z,11.30
2018-09-03T01:09:21.756Z,11.55
2018-09-03T01:11:50.451Z,10.88
2018-09-03T01:14:19.058Z,11.00
2018-09-03T01:16:47.832Z,11.40
2018-09-03T01:19:16.547Z,11.83
2018-09-03T01:21:45.012Z,10.72
2018-09-03T01:24:13.719Z,10.20
2018-09-03T01:26:42.438Z,9.73
2018-09-03T01:29:11.111Z,10.23
2018-09-03T01:31:39.935Z,9.13
2018-09-03T01:34:08.557Z,10.55
2018-09-03T01:36:37.321Z,11.20
2018-09-03T01:39:07.876Z,11.60
2018-09-03T01:41:37.128Z,10.88
2018-09-03T01:44:06.179Z,10.45
2018-09-03T01:46:35.108Z,10.72
2018-09-03T01:49:03.601Z,10.50
2018-09-03T01:51:32.255Z,11.30
2018-09-03T01:54:00.965Z,10.93
2018-09-03T01:56:29.769Z,9.30
2018-09-03T01:58:58.550Z,10.15
2018-09-03T02:01:27.226Z,10.30
2018-09-03T02:03:56.222Z,10.68
2018-09-03T02:06:24.573Z,9.10
2018-09-03T02:08:53.245Z,10.23
2018-09-03T02:11:22.055Z,9.88
2018-09-03T02:13:50.720Z,11.15
2018-09-03T02:16:19.172Z,10.43
2018-09-03T02:18:48.008Z,10.68
2018-09-03T02:21:16.729Z,11.20
2018-09-03T02:23:45.725Z,11.18
2018-09-03T02:26:14.458Z,10.80
2018-09-03T02:28:43.220Z,10.45
2018-09-03T02:31:12.224Z,11.50
2018-09-03T02:33:40.880Z,11.12
2018-09-03T02:36:09.433Z,10.85
2018-09-03T02:38:38.377Z,10.70
2018-09-03T02:41:07.209Z,10.13
2018-09-03T02:43:35.812Z,10.35
2018-09-03T02:46:04.875Z,9.50
2018-09-03T02:48:33.272Z,10.45
2018-09-03T02:51:03.437Z,11.60
2018-09-03T02:53:31.708Z,10.13
2018-09-03T02:56:00.553Z,9.93
2018-09-03T02:58:29.130Z,10.50
2018-09-03T03:00:58.205Z,9.93
2018-09-03T03:03:27.056Z,10.58
2018-09-03T03:05:55.603Z,11.25
2018-09-03T03:08:24.971Z,10.58
2018-09-03T03:10:54.420Z,9.23
2018-09-03T03:13:22.925Z,9.95
2018-09-03T03:15:51.628Z,9.30
2018-09-03T03:18:20.238Z,10.40
2018-09-03T03:20:48.924Z,10.03
2018-09-03T03:23:17.472Z,11.60
2018-09-03T03:28:24.224Z,9.83
2018-09-03T03:30:52.929Z,10.28
2018-09-03T03:33:21.832Z,10.70
2018-09-03T03:35:50.358Z,9.83
2018-09-03T03:38:19.145Z,10.90
2018-09-03T03:40:48.084Z,10.68
2018-09-03T03:43:18.159Z,10.90
2018-09-03T03:45:46.997Z,11.75
2018-09-03T03:48:15.801Z,10.90
2018-09-03T03:50:44.456Z,11.18
2018-09-03T03:53:13.301Z,11.68
2018-09-03T03:55:41.937Z,11.57
2018-09-03T03:58:10.563Z,12.75
2018-09-03T04:00:39.288Z,11.53
2018-09-03T04:03:08.237Z,11.90
2018-09-03T04:05:36.885Z,12.35
2018-09-03T04:08:05.677Z,12.18
2018-09-03T04:10:34.401Z,11.73
2018-09-03T04:13:06.143Z,12.28
2018-09-03T04:15:35.863Z,11.83
2018-09-03T04:18:05.227Z,12.28
2018-09-03T04:20:33.780Z,12.75
2018-09-03T04:23:02.452Z,12.40
2018-09-03T04:25:31.220Z,12.40
2018-09-03T04:28:00.407Z,11.73
2018-09-03T04:30:28.922Z,11.00
2018-09-03T04:32:57.652Z,11.73
2018-09-03T04:35:26.401Z,11.68
2018-09-03T04:37:55.231Z,10.95
2018-09-03T04:40:23.960Z,11.63
2018-09-03T04:42:52.685Z,11.00
2018-09-03T04:45:21.449Z,11.80
2018-09-03T04:47:50.337Z,11.75
2018-09-03T04:50:21.320Z,10.63
2018-09-03T04:52:50.002Z,12.18
2018-09-03T04:55:18.470Z,12.18
2018-09-03T04:57:47.049Z,12.43
2018-09-03T05:00:15.964Z,12.45
2018-09-03T05:02:45.000Z,13.10
2018-09-03T05:05:13.325Z,12.15
2018-09-03T05:07:42.250Z,12.75
2018-09-03T05:10:10.930Z,12.90
2018-09-03T05:12:40.814Z,13.50
2018-09-03T05:15:09.148Z,12.25
2018-09-03T05:17:37.901Z,12.70
2018-09-03T05:20:06.512Z,12.10
2018-09-03T05:22:35.424Z,12.25
2018-09-03T05:25:03.818Z,12.50
2018-09-03T05:27:32.660Z,12.33
2018-09-03T05:30:01.373Z,13.18
2018-09-03T05:32:30.083Z,12.90
2018-09-03T05:34:58.825Z,12.93
2018-09-03T05:37:27.636Z,12.73
2018-09-03T05:39:56.377Z,14.45
2018-09-03T05:42:25.513Z,14.73
2018-09-03T05:44:54.161Z,14.93
2018-09-03T05:47:22.900Z,14.75
2018-09-03T05:49:51.747Z,14.18
2018-09-03T05:52:20.674Z,15.32
2018-09-03T05:54:49.504Z,15.50
2018-09-03T05:57:18.177Z,15.08
2018-09-03T05:59:46.763Z,14.75
2018-09-03T06:02:15.777Z,15.72
2018-09-03T06:04:44.812Z,14.75
2018-09-03T06:07:13.670Z,16.25
2018-09-03T06:09:42.420Z,15.23
2018-09-03T06:12:11.110Z,16.70
2018-09-03T06:14:39.662Z,17.00
2018-09-03T06:17:08.866Z,15.53
2018-09-03T06:19:37.700Z,16.15
2018-09-03T06:22:06.888Z,15.55
2018-09-03T06:24:35.484Z,17.30
2018-09-03T06:27:04.608Z,16.10
2018-09-03T06:29:33.883Z,15.90
2018-09-03T06:32:04.109Z,16.50
2018-09-03T06:34:33.557Z,16.87
2018-09-03T06:37:01.799Z,16.60
2018-09-03T06:39:31.977Z,16.67
2018-09-03T06:42:00.261Z,15.98
2018-09-03T06:44:29.223Z,15.95
2018-09-03T06:46:57.996Z,16.00
2018-09-03T06:49:27.835Z,15.88
2018-09-03T06:51:56.412Z,15.98
2018-09-03T06:54:24.584Z,15.50
2018-09-03T06:56:54.360Z,15.83
2018-09-03T06:59:23.067Z,16.62
2018-09-03T07:01:52.486Z,18.48
2018-09-03T07:04:21.780Z,18.37
2018-09-03T07:06:50.485Z,18.92
2018-09-03T07:09:20.832Z,19.10
2018-09-03T07:11:49.581Z,18.95
2018-09-03T07:14:18.991Z,19.45
2018-09-03T07:16:48.876Z,18.73
2018-09-03T07:19:17.795Z,18.95
2018-09-03T07:21:46.745Z,18.67
2018-09-03T07:24:15.433Z,18.82
2018-09-03T07:26:45.489Z,18.82
2018-09-03T07:29:16.942Z,19.60
2018-09-03T07:31:46.509Z,19.25
2018-09-03T07:34:15.029Z,18.90
2018-09-03T07:36:44.612Z,18.70
2018-09-03T07:39:13.228Z,18.62
2018-09-03T07:41:42.437Z,18.17
2018-09-03T07:44:11.078Z,17.67
2018-09-03T07:46:40.506Z,18.77
2018-09-03T07:49:08.931Z,18.75
2018-09-03T07:51:37.925Z,19.50
2018-09-03T07:54:07.649Z,19.07
2018-09-03T07:56:38.256Z,18.48
2018-09-03T07:59:07.453Z,19.15
2018-09-03T08:01:36.657Z,19.37
2018-09-03T08:04:20.690Z,18.98
2018-09-03T08:06:50.064Z,19.27
2018-09-03T08:09:18.808Z,19.65
2018-09-03T08:11:48.396Z,19.17
2018-09-03T08:14:16.921Z,18.52
2018-09-03T08:16:45.573Z,18.23
2018-09-03T08:19:14.623Z,19.20
2018-09-03T08:21:42.981Z,19.20
2018-09-03T08:24:11.756Z,19.30
2018-09-03T08:26:40.301Z,19.57
2018-09-03T08:29:09.035Z,18.80
2018-09-03T08:31:37.956Z,19.67
2018-09-03T08:34:08.219Z,18.85
2018-09-03T08:36:36.776Z,19.85
2018-09-03T08:39:06.874Z,19.07
2018-09-03T11:27:44.209Z,5.20
2018-09-03T11:30:34.283Z,4.55
2018-09-03T11:33:03.474Z,5.35
2018-09-03T11:38:23.946Z,4.95
2018-09-03T11:41:00.395Z,4.12
2018-09-03T11:43:29.886Z,4.25
2018-09-03T11:46:04.089Z,4.92
2018-09-03T11:48:44.434Z,5.37
2018-09-03T11:51:27.030Z,5.42
2018-09-03T11:54:08.270Z,7.53
2018-09-03T11:56:44.706Z,7.20
2018-09-03T11:59:18.813Z,7.72
2018-09-03T12:02:06.466Z,8.03
2018-09-03T12:04:41.414Z,8.53
2018-09-03T12:07:10.084Z,8.53
2018-09-03T12:09:44.486Z,9.33
2018-09-03T12:12:26.687Z,7.72
2018-09-03T12:14:58.153Z,7.78
2018-09-03T12:17:32.552Z,7.12
2018-09-03T12:20:00.973Z,7.70
2018-09-03T12:22:39.424Z,6.97
2018-09-03T12:25:08.622Z,6.83
2018-09-03T12:27:37.474Z,6.65
2018-09-03T12:30:09.461Z,6.67
2018-09-03T12:32:39.281Z,6.65
2018-09-03T12:35:14.092Z,6.97
2018-09-03T12:37:45.883Z,7.10
2018-09-03T12:40:14.564Z,6.83
2018-09-03T12:42:43.197Z,6.85
2018-09-03T12:45:12.234Z,6.80
2018-09-03T12:47:41.272Z,7.92
2018-09-03T12:50:10.533Z,8.48
2018-09-03T12:52:39.600Z,7.78
2018-09-03T12:55:09.568Z,7.87
2018-09-03T12:57:38.584Z,7.75
2018-09-03T13:00:08.498Z,7.25
2018-09-03T13:02:40.461Z,8.23
2018-09-03T13:05:09.089Z,7.70
2018-09-03T13:07:41.124Z,7.17
2018-09-03T13:10:10.158Z,7.00
2018-09-03T13:12:39.306Z,7.28
2018-09-03T13:15:09.525Z,8.23
2018-09-03T13:17:38.438Z,7.37
2018-09-03T13:20:08.661Z,7.55
2018-09-03T13:22:37.601Z,7.45
2018-09-03T13:25:06.432Z,8.08
2018-09-03T13:27:35.584Z,7.55
2018-09-03T13:30:05.509Z,8.20
2018-09-03T13:32:33.933Z,7.95
2018-09-03T13:35:03.737Z,8.00
2018-09-03T13:37:32.929Z,7.50
2018-09-03T13:40:01.868Z,7.80
2018-09-03T13:42:31.081Z,8.00
2018-09-03T13:45:00.222Z,8.43
2018-09-03T13:47:34.542Z,8.45
2018-09-03T13:50:04.105Z,8.20
2018-09-03T13:52:33.974Z,8.58
2018-09-03T13:55:05.203Z,7.92
2018-09-03T13:57:36.870Z,7.95
2018-09-03T14:00:06.876Z,9.43
2018-09-03T14:02:38.912Z,9.00
2018-09-03T14:05:13.233Z,8.80
2018-09-03T14:07:44.897Z,8.80
2018-09-03T14:10:13.787Z,8.73
2018-09-03T14:12:43.001Z,8.58
2018-09-03T14:15:11.661Z,9.08
2018-09-03T14:17:40.717Z,9.45
2018-09-03T14:20:17.079Z,8.53
2018-09-03T14:22:45.622Z,9.20
2018-09-03T14:25:14.453Z,10.13
2018-09-03T14:27:49.889Z,9.18
2018-09-03T14:30:18.960Z,9.75
2018-09-03T14:32:48.193Z,9.33
2018-09-03T14:35:18.172Z,8.80
2018-09-03T14:37:48.084Z,9.50
2018-09-03T14:40:17.281Z,10.08
2018-09-03T14:42:45.997Z,10.85
2018-09-03T14:45:21.068Z,10.35
2018-09-03T14:47:55.178Z,10.18
2018-09-03T14:50:23.881Z,10.45
2018-09-03T14:52:52.452Z,9.48
2018-09-03T14:55:21.636Z,9.38
2018-09-03T14:57:50.548Z,9.50
2018-09-03T15:00:19.624Z,10.98
2018-09-03T15:02:48.885Z,9.73
2018-09-03T15:05:18.496Z,9.55
2018-09-03T15:07:47.366Z,10.55
2018-09-03T15:10:16.219Z,10.13
2018-09-03T15:12:45.483Z,10.30
2018-09-03T15:15:19.705Z,9.15
2018-09-03T15:17:48.199Z,10.58
2018-09-03T15:20:17.477Z,11.22
2018-09-03T15:22:47.528Z,10.65
2018-09-03T15:25:19.274Z,9.95
2018-09-03T15:27:48.332Z,10.38
2018-09-03T15:30:26.919Z,9.95
2018-09-03T16:54:32.781Z,12.60
2018-09-03T16:57:04.425Z,11.80
2018-09-03T16:59:33.543Z,12.07
2018-09-03T17:02:01.857Z,11.97
2018-09-03T17:04:30.730Z,12.37
2018-09-03T17:06:59.384Z,11.57
2018-09-03T17:09:28.306Z,11.65
2018-09-03T17:11:57.195Z,12.58
2018-09-03T17:14:26.009Z,12.85
2018-09-03T17:16:54.804Z,12.90
2018-09-03T17:19:23.565Z,13.38
2018-09-03T17:21:52.259Z,13.48
2018-09-03T17:24:20.941Z,13.93
2018-09-03T17:26:49.837Z,13.38
2018-09-03T17:29:18.586Z,12.05
2018-09-03T17:31:47.229Z,12.90
2018-09-03T17:34:16.045Z,12.43
2018-09-03T17:36:45.005Z,12.50
2018-09-03T17:39:13.584Z,12.73
2018-09-03T17:41:42.398Z,13.20
2018-09-03T17:44:10.997Z,13.62
2018-09-03T17:46:39.556Z,14.23
2018-09-03T17:49:08.305Z,12.50
2018-09-03T17:51:37.134Z,13.58
2018-09-03T17:54:06.013Z,13.62
2018-09-03T17:56:34.838Z,13.68
2018-09-03T17:59:03.972Z,14.35
2018-09-03T18:01:32.537Z,14.45
2018-09-03T18:04:01.260Z,14.93
2018-09-03T18:06:30.097Z,15.50
2018-09-03T18:08:58.830Z,15.65
2018-09-03T18:11:27.704Z,14.87
2018-09-03T18:13:56.517Z,15.13
2018-09-03T18:16:25.879Z,14.85
2018-09-03T18:18:54.459Z,15.15
2018-09-03T18:21:23.518Z,15.32
2018-09-03T18:23:52.182Z,16.05
2018-09-03T18:26:20.973Z,16.12
2018-09-03T18:28:49.698Z,16.45
2018-09-03T18:31:21.636Z,16.37
2018-09-03T18:33:50.539Z,18.52
2018-09-03T18:36:19.309Z,17.07
2018-09-03T18:38:47.846Z,17.48
2018-09-03T18:41:16.767Z,18.42
2018-09-03T18:43:46.696Z,18.48
2018-09-03T18:46:15.368Z,18.32
2018-09-03T18:48:43.986Z,20.12
2018-09-03T18:51:12.839Z,18.10
2018-09-03T18:53:41.577Z,18.85
2018-09-03T18:56:13.403Z,19.62
2018-09-03T18:58:43.431Z,20.20
2018-09-03T19:01:11.966Z,19.37
2018-09-03T19:03:40.755Z,21.65
2018-09-03T19:06:10.491Z,20.82
2018-09-03T19:08:39.219Z,21.65
2018-09-03T19:11:13.389Z,21.80
2018-09-03T19:13:41.692Z,23.38
2018-09-03T19:16:10.571Z,23.25
2018-09-03T19:18:39.442Z,23.35
2018-09-03T19:21:08.181Z,22.70
2018-09-03T19:23:46.030Z,22.87
2018-09-03T19:26:17.352Z,23.35
2018-09-03T19:28:47.112Z,21.68
2018-09-03T19:31:15.904Z,23.90
2018-09-03T19:33:47.466Z,24.35
2018-09-03T19:36:16.611Z,24.45
2018-09-03T19:38:45.645Z,24.40
2018-09-03T19:41:13.956Z,24.55
2018-09-03T19:43:44.981Z,25.27
2018-09-03T19:46:25.849Z,25.37
2018-09-03T19:51:50.705Z,24.57
2018-09-03T19:54:19.284Z,26.12
2018-09-03T19:56:51.769Z,25.90
2018-09-03T19:59:20.202Z,27.90
2018-09-03T20:02:05.242Z,26.85
2018-09-03T20:04:39.636Z,25.23
2018-09-03T20:07:15.823Z,27.70
2018-09-03T20:09:44.964Z,28.17
2018-09-03T20:12:14.229Z,26.75
2018-09-03T20:14:43.338Z,28.12
2018-09-03T20:17:24.463Z,28.83
2018-09-03T20:20:11.804Z,28.40
2018-09-03T20:22:46.047Z,28.17
2018-09-03T20:28:09.836Z,28.42
2018-09-03T20:30:46.604Z,30.70
2018-09-03T20:33:15.877Z,31.30
2018-09-03T20:35:47.470Z,29.57
2018-09-03T20:38:33.930Z,30.17
2018-09-03T20:41:15.453Z,27.73
2018-09-03T20:43:51.304Z,29.02
2018-09-03T20:46:23.705Z,30.10
2018-09-03T20:48:52.666Z,28.35
2018-09-03T20:51:21.593Z,30.85
2018-09-03T20:53:53.229Z,29.85
2018-09-03T20:56:43.494Z,29.42
2018-09-03T20:59:20.532Z,30.68
2018-09-03T21:01:55.001Z,30.12
2018-09-03T21:04:23.970Z,32.10
2018-09-03T21:06:56.342Z,32.08
2018-09-03T21:09:25.129Z,31.75
2018-09-03T21:11:54.423Z,33.00
2018-09-03T21:14:34.503Z,31.85
2018-09-03T21:17:02.971Z,32.78
2018-09-03T21:19:44.820Z,34.20
2018-09-03T21:22:22.896Z,33.02
2018-09-03T21:24:51.697Z,31.68
2018-09-03T21:27:23.094Z,32.13
2018-09-03T21:29:57.694Z,30.50
2018-09-03T21:32:27.595Z,29.35
2018-09-03T21:34:56.136Z,28.20
2018-09-03T21:37:37.061Z,30.48
2018-09-03T21:40:19.565Z,30.90
2018-09-03T21:42:54.171Z,31.02
2018-09-03T21:45:28.816Z,32.38
2018-09-03T21:47:58.536Z,33.25
2018-09-03T21:50:28.100Z,32.95
2018-09-03T21:53:05.335Z,33.90
2018-09-03T21:55:43.544Z,33.70
2018-09-03T21:58:18.458Z,34.10
2018-09-03T22:00:52.672Z,35.28
2018-09-03T22:03:24.197Z,35.73
2018-09-03T22:06:13.139Z,35.52
2018-09-03T22:08:43.827Z,35.25
2018-09-03T22:11:12.980Z,34.98
2018-09-03T22:13:48.900Z,34.50
2018-09-03T22:16:20.572Z,35.20
2018-09-03T22:18:58.484Z,35.45
2018-09-03T22:21:44.605Z,33.33
2018-09-03T22:24:18.861Z,34.10
2018-09-03T22:26:50.604Z,33.98
2018-09-03T22:29:22.991Z,33.25
2018-09-03T22:31:53.393Z,33.58
2018-09-03T22:34:22.113Z,32.48
2018-09-03T22:36:56.164Z,33.58
2018-09-03T22:39:40.286Z,32.10
2018-09-03T22:42:12.256Z,32.20
2018-09-03T22:44:41.061Z,31.62
2018-09-03T22:47:12.736Z,31.35
2018-09-03T22:49:58.627Z,30.10
2018-09-03T22:52:27.236Z,29.87
2018-09-03T22:54:55.892Z,29.85
2018-09-03T22:57:27.808Z,28.50
2018-09-03T22:59:56.568Z,30.25
2018-09-03T23:02:25.471Z,29.12
2018-09-03T23:04:54.800Z,29.15
2018-09-03T23:07:23.354Z,30.30
2018-09-03T23:09:52.554Z,30.00
2018-09-03T23:12:25.199Z,30.20
2018-09-03T23:14:53.516Z,30.00
2018-09-03T23:17:43.716Z,30.05
2018-09-03T23:20:17.735Z,29.37
2018-09-03T23:22:47.826Z,31.75
2018-09-03T23:25:18.034Z,32.03
2018-09-03T23:27:53.768Z,32.40
2018-09-03T23:30:28.003Z,30.60
2018-09-03T23:32:57.563Z,30.80
2018-09-03T23:35:27.692Z,30.90
2018-09-03T23:37:58.359Z,32.55
2018-09-03T23:40:29.006Z,31.95
2018-09-03T23:43:10.167Z,30.45
2018-09-03T23:45:41.792Z,31.50
2018-09-03T23:48:20.545Z,30.68
2018-09-03T23:51:00.781Z,30.80
2018-09-03T23:53:30.700Z,29.72
2018-09-03T23:56:02.733Z,31.48
2018-09-03T23:58:31.449Z,31.82
